sensor_id;sensor_type;location;lat;lon;timestamp;P1;durP1;ratioP1;P2;durP2;ratioP2
47609;SDS011;33330;50.402;30.240;2023-08-30T00:01:05;0.60;;;0.60;;
47609;SDS011;33330;50.402;30.240;2023-08-30T00:03:56;1.95;;;1.63;;
47609;SDS011;33330;50.402;30.240;2023-08-30T00:06:44;0.52;;;0.52;;
47609;SDS011;33330;50.402;30.240;2023-08-30T00:09:32;0.90;;;0.90;;
47609;SDS011;33330;50.402;30.240;2023-08-30T00:12:22;0.52;;;0.52;;
47609;SDS011;33330;50.402;30.240;2023-08-30T00:15:10;0.40;;;0.40;;
47609;SDS011;33330;50.402;30.240;2023-08-30T00:17:59;1.15;;;1.05;;
47609;SDS011;33330;50.402;30.240;2023-08-30T00:20:49;0.10;;;0.10;;
47609;SDS011;33330;50.402;30.240;2023-08-30T00:23:37;0.70;;;0.70;;
47609;SDS011;33330;50.402;30.240;2023-08-30T00:26:25;4.47;;;0.50;;
47609;SDS011;33330;50.402;30.240;2023-08-30T00:29:14;0.43;;;0.43;;
47609;SDS011;33330;50.402;30.240;2023-08-30T00:32:02;0.35;;;0.35;;
47609;SDS011;33330;50.402;30.240;2023-08-30T00:34:51;1.27;;;1.20;;
47609;SDS011;33330;50.402;30.240;2023-08-30T00:37:41;0.63;;;0.40;;
47609;SDS011;33330;50.402;30.240;2023-08-30T00:40:32;0.70;;;0.70;;
47609;SDS011;33330;50.402;30.240;2023-08-30T00:43:25;1.60;;;0.38;;
47609;SDS011;33330;50.402;30.240;2023-08-30T00:46:13;0.32;;;0.32;;
47609;SDS011;33330;50.402;30.240;2023-08-30T00:49:02;0.20;;;0.20;;
47609;SDS011;33330;50.402;30.240;2023-08-30T00:51:50;0.80;;;0.65;;
47609;SDS011;33330;50.402;30.240;2023-08-30T00:54:41;0.75;;;0.65;;
47609;SDS011;33330;50.402;30.240;2023-08-30T00:57:29;0.20;;;0.13;;
47609;SDS011;33330;50.402;30.240;2023-08-30T01:00:17;0.03;;;0.03;;
47609;SDS011;33330;50.402;30.240;2023-08-30T01:03:05;2.70;;;0.50;;
47609;SDS011;33330;50.402;30.240;2023-08-30T01:05:54;1.70;;;0.57;;
47609;SDS011;33330;50.402;30.240;2023-08-30T01:08:42;0.30;;;0.30;;
47609;SDS011;33330;50.402;30.240;2023-08-30T01:11:34;0.52;;;0.52;;
47609;SDS011;33330;50.402;30.240;2023-08-30T01:14:25;0.52;;;0.52;;
47609;SDS011;33330;50.402;30.240;2023-08-30T01:17:17;0.10;;;0.10;;
47609;SDS011;33330;50.402;30.240;2023-08-30T01:20:06;0.13;;;0.13;;
47609;SDS011;33330;50.402;30.240;2023-08-30T01:23:01;1.17;;;0.88;;
47609;SDS011;33330;50.402;30.240;2023-08-30T01:25:53;0.52;;;0.45;;
47609;SDS011;33330;50.402;30.240;2023-08-30T01:28:46;0.57;;;0.45;;
47609;SDS011;33330;50.402;30.240;2023-08-30T01:31:36;0.22;;;0.22;;
47609;SDS011;33330;50.402;30.240;2023-08-30T01:34:25;0.25;;;0.25;;
47609;SDS011;33330;50.402;30.240;2023-08-30T01:37:14;0.50;;;0.50;;
47609;SDS011;33330;50.402;30.240;2023-08-30T01:40:03;0.70;;;0.50;;
47609;SDS011;33330;50.402;30.240;2023-08-30T01:42:52;0.40;;;0.38;;
47609;SDS011;33330;50.402;30.240;2023-08-30T01:45:43;0.20;;;0.20;;
47609;SDS011;33330;50.402;30.240;2023-08-30T01:48:31;1.95;;;0.65;;
47609;SDS011;33330;50.402;30.240;2023-08-30T01:51:21;0.65;;;0.65;;
47609;SDS011;33330;50.402;30.240;2023-08-30T01:54:09;0.45;;;0.25;;
47609;SDS011;33330;50.402;30.240;2023-08-30T01:57:01;0.20;;;0.20;;
47609;SDS011;33330;50.402;30.240;2023-08-30T01:59:50;1.65;;;0.65;;
47609;SDS011;33330;50.402;30.240;2023-08-30T02:02:40;0.77;;;0.55;;
47609;SDS011;33330;50.402;30.240;2023-08-30T02:05:29;0.50;;;0.22;;
47609;SDS011;33330;50.402;30.240;2023-08-30T02:08:17;0.32;;;0.32;;
47609;SDS011;33330;50.402;30.240;2023-08-30T02:11:08;1.25;;;0.65;;
47609;SDS011;33330;50.402;30.240;2023-08-30T02:14:01;0.65;;;0.65;;
47609;SDS011;33330;50.402;30.240;2023-08-30T02:16:54;1.10;;;0.90;;
47609;SDS011;33330;50.402;30.240;2023-08-30T02:19:44;0.52;;;0.52;;
47609;SDS011;33330;50.402;30.240;2023-08-30T02:22:37;0.65;;;0.30;;
47609;SDS011;33330;50.402;30.240;2023-08-30T02:25:26;0.52;;;0.52;;
47609;SDS011;33330;50.402;30.240;2023-08-30T02:28:14;3.97;;;1.33;;
47609;SDS011;33330;50.402;30.240;2023-08-30T02:31:02;0.77;;;0.77;;
47609;SDS011;33330;50.402;30.240;2023-08-30T02:33:50;1.38;;;1.27;;
47609;SDS011;33330;50.402;30.240;2023-08-30T02:36:40;1.20;;;1.10;;
47609;SDS011;33330;50.402;30.240;2023-08-30T02:39:28;1.13;;;1.08;;
47609;SDS011;33330;50.402;30.240;2023-08-30T02:42:17;1.25;;;1.23;;
47609;SDS011;33330;50.402;30.240;2023-08-30T02:45:05;1.92;;;1.83;;
47609;SDS011;33330;50.402;30.240;2023-08-30T02:47:55;1.67;;;1.58;;
47609;SDS011;33330;50.402;30.240;2023-08-30T02:50:45;1.00;;;0.95;;
47609;SDS011;33330;50.402;30.240;2023-08-30T02:53:34;2.20;;;2.05;;
47609;SDS011;33330;50.402;30.240;2023-08-30T02:56:23;1.30;;;1.20;;
47609;SDS011;33330;50.402;30.240;2023-08-30T02:59:11;1.05;;;1.05;;
47609;SDS011;33330;50.402;30.240;2023-08-30T03:02:00;1.98;;;1.88;;
47609;SDS011;33330;50.402;30.240;2023-08-30T03:04:49;2.10;;;1.60;;
47609;SDS011;33330;50.402;30.240;2023-08-30T03:07:39;1.42;;;1.33;;
47609;SDS011;33330;50.402;30.240;2023-08-30T03:10:28;0.57;;;0.57;;
47609;SDS011;33330;50.402;30.240;2023-08-30T03:13:17;0.38;;;0.35;;
47609;SDS011;33330;50.402;30.240;2023-08-30T03:16:12;2.38;;;0.80;;
47609;SDS011;33330;50.402;30.240;2023-08-30T03:19:00;2.38;;;0.95;;
47609;SDS011;33330;50.402;30.240;2023-08-30T03:21:50;2.50;;;2.00;;
47609;SDS011;33330;50.402;30.240;2023-08-30T03:24:38;3.17;;;1.85;;
47609;SDS011;33330;50.402;30.240;2023-08-30T03:27:28;2.33;;;1.75;;
47609;SDS011;33330;50.402;30.240;2023-08-30T03:30:16;4.15;;;2.38;;
47609;SDS011;33330;50.402;30.240;2023-08-30T03:33:04;2.22;;;2.05;;
47609;SDS011;33330;50.402;30.240;2023-08-30T03:35:52;4.43;;;3.60;;
47609;SDS011;33330;50.402;30.240;2023-08-30T03:38:41;3.80;;;3.45;;
47609;SDS011;33330;50.402;30.240;2023-08-30T03:41:31;3.60;;;3.15;;
47609;SDS011;33330;50.402;30.240;2023-08-30T03:44:21;3.90;;;3.63;;
47609;SDS011;33330;50.402;30.240;2023-08-30T03:47:10;3.63;;;3.05;;
47609;SDS011;33330;50.402;30.240;2023-08-30T03:49:58;1.92;;;1.80;;
47609;SDS011;33330;50.402;30.240;2023-08-30T03:52:46;3.10;;;2.83;;
47609;SDS011;33330;50.402;30.240;2023-08-30T03:55:35;2.45;;;1.98;;
47609;SDS011;33330;50.402;30.240;2023-08-30T03:58:23;2.20;;;1.98;;
47609;SDS011;33330;50.402;30.240;2023-08-30T04:01:13;0.85;;;0.82;;
47609;SDS011;33330;50.402;30.240;2023-08-30T04:04:01;1.20;;;1.10;;
47609;SDS011;33330;50.402;30.240;2023-08-30T04:06:49;1.17;;;1.08;;
47609;SDS011;33330;50.402;30.240;2023-08-30T04:09:37;2.50;;;1.77;;
47609;SDS011;33330;50.402;30.240;2023-08-30T04:12:25;1.80;;;1.70;;
47609;SDS011;33330;50.402;30.240;2023-08-30T04:15:14;5.90;;;2.33;;
47609;SDS011;33330;50.402;30.240;2023-08-30T04:18:04;1.00;;;1.00;;
47609;SDS011;33330;50.402;30.240;2023-08-30T04:20:54;0.60;;;0.55;;
47609;SDS011;33330;50.402;30.240;2023-08-30T04:23:42;1.85;;;1.45;;
47609;SDS011;33330;50.402;30.240;2023-08-30T04:26:31;0.77;;;0.47;;
47609;SDS011;33330;50.402;30.240;2023-08-30T04:29:20;2.72;;;1.58;;
47609;SDS011;33330;50.402;30.240;2023-08-30T04:32:09;1.45;;;1.17;;
47609;SDS011;33330;50.402;30.240;2023-08-30T04:34:59;0.60;;;0.60;;
47609;SDS011;33330;50.402;30.240;2023-08-30T04:37:47;0.47;;;0.47;;
47609;SDS011;33330;50.402;30.240;2023-08-30T04:40:36;1.23;;;1.23;;
47609;SDS011;33330;50.402;30.240;2023-08-30T04:43:25;0.80;;;0.80;;
47609;SDS011;33330;50.402;30.240;2023-08-30T04:46:13;1.02;;;1.02;;
47609;SDS011;33330;50.402;30.240;2023-08-30T04:49:01;0.85;;;0.85;;
47609;SDS011;33330;50.402;30.240;2023-08-30T04:51:53;0.90;;;0.90;;
47609;SDS011;33330;50.402;30.240;2023-08-30T04:54:42;1.30;;;1.15;;
47609;SDS011;33330;50.402;30.240;2023-08-30T04:57:32;0.70;;;0.70;;
47609;SDS011;33330;50.402;30.240;2023-08-30T05:00:23;0.70;;;0.70;;
47609;SDS011;33330;50.402;30.240;2023-08-30T05:03:11;0.63;;;0.63;;
47609;SDS011;33330;50.402;30.240;2023-08-30T05:06:01;0.30;;;0.30;;
47609;SDS011;33330;50.402;30.240;2023-08-30T05:08:50;0.55;;;0.55;;
47609;SDS011;33330;50.402;30.240;2023-08-30T05:11:38;0.80;;;0.80;;
47609;SDS011;33330;50.402;30.240;2023-08-30T05:14:26;0.98;;;0.45;;
47609;SDS011;33330;50.402;30.240;2023-08-30T05:17:14;1.10;;;0.93;;
47609;SDS011;33330;50.402;30.240;2023-08-30T05:20:04;1.10;;;0.55;;
47609;SDS011;33330;50.402;30.240;2023-08-30T05:22:53;0.80;;;0.35;;
47609;SDS011;33330;50.402;30.240;2023-08-30T05:25:45;0.47;;;0.47;;
47609;SDS011;33330;50.402;30.240;2023-08-30T05:28:35;0.52;;;0.52;;
47609;SDS011;33330;50.402;30.240;2023-08-30T05:31:24;0.45;;;0.45;;
47609;SDS011;33330;50.402;30.240;2023-08-30T05:34:38;0.90;;;0.90;;
47609;SDS011;33330;50.402;30.240;2023-08-30T05:37:32;0.45;;;0.45;;
47609;SDS011;33330;50.402;30.240;2023-08-30T05:40:35;0.65;;;0.60;;
47609;SDS011;33330;50.402;30.240;2023-08-30T05:43:25;0.30;;;0.30;;
47609;SDS011;33330;50.402;30.240;2023-08-30T05:46:13;0.77;;;0.77;;
47609;SDS011;33330;50.402;30.240;2023-08-30T05:49:03;0.65;;;0.52;;
47609;SDS011;33330;50.402;30.240;2023-08-30T05:51:52;1.85;;;0.47;;
47609;SDS011;33330;50.402;30.240;2023-08-30T05:54:41;0.57;;;0.52;;
47609;SDS011;33330;50.402;30.240;2023-08-30T05:57:31;0.20;;;0.20;;
47609;SDS011;33330;50.402;30.240;2023-08-30T06:00:21;0.45;;;0.32;;
47609;SDS011;33330;50.402;30.240;2023-08-30T06:03:10;0.20;;;0.20;;
47609;SDS011;33330;50.402;30.240;2023-08-30T06:05:59;0.30;;;0.20;;
47609;SDS011;33330;50.402;30.240;2023-08-30T06:08:48;0.10;;;0.10;;
47609;SDS011;33330;50.402;30.240;2023-08-30T06:11:36;0.52;;;0.52;;
47609;SDS011;33330;50.402;30.240;2023-08-30T06:14:25;0.35;;;0.35;;
47609;SDS011;33330;50.402;30.240;2023-08-30T06:17:15;0.10;;;0.10;;
47609;SDS011;33330;50.402;30.240;2023-08-30T06:20:04;0.73;;;0.73;;
47609;SDS011;33330;50.402;30.240;2023-08-30T06:22:53;2.70;;;0.60;;
47609;SDS011;33330;50.402;30.240;2023-08-30T06:25:41;0.47;;;0.47;;
47609;SDS011;33330;50.402;30.240;2023-08-30T06:28:30;2.25;;;0.55;;
47609;SDS011;33330;50.402;30.240;2023-08-30T06:31:18;0.60;;;0.57;;
47609;SDS011;33330;50.402;30.240;2023-08-30T06:34:08;0.45;;;0.45;;
47609;SDS011;33330;50.402;30.240;2023-08-30T06:36:56;0.63;;;0.55;;
47609;SDS011;33330;50.402;30.240;2023-08-30T06:39:44;0.15;;;0.15;;
47609;SDS011;33330;50.402;30.240;2023-08-30T06:42:32;0.43;;;0.28;;
47609;SDS011;33330;50.402;30.240;2023-08-30T06:45:20;0.70;;;0.70;;
47609;SDS011;33330;50.402;30.240;2023-08-30T06:48:08;0.47;;;0.20;;
47609;SDS011;33330;50.402;30.240;2023-08-30T06:50:59;0.40;;;0.40;;
47609;SDS011;33330;50.402;30.240;2023-08-30T06:53:47;1.85;;;1.23;;
47609;SDS011;33330;50.402;30.240;2023-08-30T06:56:36;0.40;;;0.40;;
47609;SDS011;33330;50.402;30.240;2023-08-30T06:59:24;0.40;;;0.35;;
47609;SDS011;33330;50.402;30.240;2023-08-30T07:02:12;0.80;;;0.47;;
47609;SDS011;33330;50.402;30.240;2023-08-30T07:05:01;0.38;;;0.38;;
47609;SDS011;33330;50.402;30.240;2023-08-30T07:07:53;0.45;;;0.40;;
47609;SDS011;33330;50.402;30.240;2023-08-30T07:10:41;0.28;;;0.28;;
47609;SDS011;33330;50.402;30.240;2023-08-30T07:13:30;0.55;;;0.55;;
47609;SDS011;33330;50.402;30.240;2023-08-30T07:16:18;0.35;;;0.35;;
47609;SDS011;33330;50.402;30.240;2023-08-30T07:19:07;0.70;;;0.70;;
47609;SDS011;33330;50.402;30.240;2023-08-30T07:21:56;1.05;;;0.60;;
47609;SDS011;33330;50.402;30.240;2023-08-30T07:24:47;0.25;;;0.25;;
47609;SDS011;33330;50.402;30.240;2023-08-30T07:27:36;0.65;;;0.60;;
47609;SDS011;33330;50.402;30.240;2023-08-30T07:30:24;0.30;;;0.30;;
47609;SDS011;33330;50.402;30.240;2023-08-30T07:33:13;0.57;;;0.43;;
47609;SDS011;33330;50.402;30.240;2023-08-30T07:36:02;0.60;;;0.38;;
47609;SDS011;33330;50.402;30.240;2023-08-30T07:38:51;0.50;;;0.28;;
47609;SDS011;33330;50.402;30.240;2023-08-30T07:41:41;0.43;;;0.43;;
47609;SDS011;33330;50.402;30.240;2023-08-30T07:44:30;0.90;;;0.80;;
47609;SDS011;33330;50.402;30.240;2023-08-30T07:47:19;0.22;;;0.22;;
47609;SDS011;33330;50.402;30.240;2023-08-30T07:50:07;0.82;;;0.52;;
47609;SDS011;33330;50.402;30.240;2023-08-30T07:52:56;0.88;;;0.52;;
47609;SDS011;33330;50.402;30.240;2023-08-30T07:55:47;0.80;;;0.40;;
47609;SDS011;33330;50.402;30.240;2023-08-30T07:58:37;0.03;;;0.03;;
47609;SDS011;33330;50.402;30.240;2023-08-30T08:01:25;0.60;;;0.60;;
47609;SDS011;33330;50.402;30.240;2023-08-30T08:04:13;0.10;;;0.10;;
47609;SDS011;33330;50.402;30.240;2023-08-30T08:07:01;0.68;;;0.68;;
47609;SDS011;33330;50.402;30.240;2023-08-30T08:09:51;0.20;;;0.20;;
47609;SDS011;33330;50.402;30.240;2023-08-30T08:12:39;0.40;;;0.40;;
47609;SDS011;33330;50.402;30.240;2023-08-30T08:15:29;0.13;;;0.13;;
47609;SDS011;33330;50.402;30.240;2023-08-30T08:18:18;0.40;;;0.40;;
47609;SDS011;33330;50.402;30.240;2023-08-30T08:21:06;0.45;;;0.40;;
47609;SDS011;33330;50.402;30.240;2023-08-30T08:23:55;0.08;;;0.08;;
47609;SDS011;33330;50.402;30.240;2023-08-30T08:26:43;0.32;;;0.30;;
47609;SDS011;33330;50.402;30.240;2023-08-30T08:29:31;0.43;;;0.43;;
47609;SDS011;33330;50.402;30.240;2023-08-30T08:32:21;0.30;;;0.30;;
47609;SDS011;33330;50.402;30.240;2023-08-30T08:35:09;0.35;;;0.35;;
47609;SDS011;33330;50.402;30.240;2023-08-30T08:37:57;1.88;;;0.50;;
47609;SDS011;33330;50.402;30.240;2023-08-30T08:40:45;0.20;;;0.20;;
47609;SDS011;33330;50.402;30.240;2023-08-30T08:43:33;0.43;;;0.43;;
47609;SDS011;33330;50.402;30.240;2023-08-30T08:46:23;0.47;;;0.30;;
47609;SDS011;33330;50.402;30.240;2023-08-30T08:49:15;0.08;;;0.08;;
47609;SDS011;33330;50.402;30.240;2023-08-30T08:52:04;0.43;;;0.32;;
47609;SDS011;33330;50.402;30.240;2023-08-30T08:55:10;0.80;;;0.20;;
47609;SDS011;33330;50.402;30.240;2023-08-30T08:57:59;0.20;;;0.20;;
47609;SDS011;33330;50.402;30.240;2023-08-30T09:00:49;0.20;;;0.20;;
47609;SDS011;33330;50.402;30.240;2023-08-30T09:03:38;0.30;;;0.30;;
47609;SDS011;33330;50.402;30.240;2023-08-30T09:06:28;1.00;;;0.20;;
47609;SDS011;33330;50.402;30.240;2023-08-30T09:09:17;0.17;;;0.05;;
47609;SDS011;33330;50.402;30.240;2023-08-30T09:12:06;0.00;;;0.00;;
47609;SDS011;33330;50.402;30.240;2023-08-30T09:14:55;0.47;;;0.47;;
47609;SDS011;33330;50.402;30.240;2023-08-30T09:17:43;0.70;;;0.45;;
47609;SDS011;33330;50.402;30.240;2023-08-30T09:20:33;0.45;;;0.45;;
47609;SDS011;33330;50.402;30.240;2023-08-30T09:23:23;0.10;;;0.10;;
47609;SDS011;33330;50.402;30.240;2023-08-30T09:26:12;0.82;;;0.43;;
47609;SDS011;33330;50.402;30.240;2023-08-30T09:29:03;0.43;;;0.43;;
47609;SDS011;33330;50.402;30.240;2023-08-30T09:31:52;1.13;;;1.05;;
47609;SDS011;33330;50.402;30.240;2023-08-30T09:34:45;0.28;;;0.13;;
47609;SDS011;33330;50.402;30.240;2023-08-30T09:37:34;0.25;;;0.25;;
47609;SDS011;33330;50.402;30.240;2023-08-30T09:40:23;0.30;;;0.30;;
47609;SDS011;33330;50.402;30.240;2023-08-30T09:43:12;0.75;;;0.38;;
47609;SDS011;33330;50.402;30.240;2023-08-30T09:46:02;0.30;;;0.30;;
47609;SDS011;33330;50.402;30.240;2023-08-30T09:48:52;0.25;;;0.25;;
47609;SDS011;33330;50.402;30.240;2023-08-30T09:51:41;0.60;;;0.60;;
47609;SDS011;33330;50.402;30.240;2023-08-30T09:54:30;0.30;;;0.30;;
47609;SDS011;33330;50.402;30.240;2023-08-30T09:57:27;0.00;;;0.00;;
47609;SDS011;33330;50.402;30.240;2023-08-30T10:00:16;0.20;;;0.20;;
47609;SDS011;33330;50.402;30.240;2023-08-30T10:03:04;0.28;;;0.28;;
47609;SDS011;33330;50.402;30.240;2023-08-30T10:05:56;1.05;;;0.70;;
47609;SDS011;33330;50.402;30.240;2023-08-30T10:08:48;1.17;;;0.88;;
47609;SDS011;33330;50.402;30.240;2023-08-30T10:11:38;0.82;;;0.75;;
47609;SDS011;33330;50.402;30.240;2023-08-30T10:14:28;0.65;;;0.60;;
47609;SDS011;33330;50.402;30.240;2023-08-30T10:17:17;0.15;;;0.15;;
47609;SDS011;33330;50.402;30.240;2023-08-30T10:20:07;0.35;;;0.35;;
47609;SDS011;33330;50.402;30.240;2023-08-30T10:22:56;0.30;;;0.22;;
47609;SDS011;33330;50.402;30.240;2023-08-30T10:25:46;0.85;;;0.85;;
47609;SDS011;33330;50.402;30.240;2023-08-30T10:28:38;0.10;;;0.10;;
47609;SDS011;33330;50.402;30.240;2023-08-30T10:31:28;0.80;;;0.35;;
47609;SDS011;33330;50.402;30.240;2023-08-30T10:34:17;1.77;;;0.70;;
47609;SDS011;33330;50.402;30.240;2023-08-30T10:37:06;0.38;;;0.38;;
47609;SDS011;33330;50.402;30.240;2023-08-30T10:39:59;0.10;;;0.10;;
47609;SDS011;33330;50.402;30.240;2023-08-30T10:42:58;0.35;;;0.20;;
47609;SDS011;33330;50.402;30.240;2023-08-30T10:45:46;0.73;;;0.10;;
47609;SDS011;33330;50.402;30.240;2023-08-30T10:48:48;0.10;;;0.10;;
47609;SDS011;33330;50.402;30.240;2023-08-30T10:51:37;0.98;;;0.85;;
47609;SDS011;33330;50.402;30.240;2023-08-30T10:54:36;2.30;;;0.30;;
47609;SDS011;33330;50.402;30.240;2023-08-30T10:57:25;0.32;;;0.32;;
47609;SDS011;33330;50.402;30.240;2023-08-30T11:00:18;0.45;;;0.30;;
47609;SDS011;33330;50.402;30.240;2023-08-30T11:03:10;1.10;;;0.75;;
47609;SDS011;33330;50.402;30.240;2023-08-30T11:06:00;0.25;;;0.25;;
47609;SDS011;33330;50.402;30.240;2023-08-30T11:08:49;0.77;;;0.45;;
47609;SDS011;33330;50.402;30.240;2023-08-30T11:11:37;1.30;;;0.65;;
47609;SDS011;33330;50.402;30.240;2023-08-30T11:14:25;0.35;;;0.35;;
47609;SDS011;33330;50.402;30.240;2023-08-30T11:17:13;0.47;;;0.38;;
47609;SDS011;33330;50.402;30.240;2023-08-30T11:20:07;0.28;;;0.28;;
47609;SDS011;33330;50.402;30.240;2023-08-30T11:22:58;0.20;;;0.20;;
47609;SDS011;33330;50.402;30.240;2023-08-30T11:25:49;0.30;;;0.30;;
47609;SDS011;33330;50.402;30.240;2023-08-30T11:28:38;0.63;;;0.63;;
47609;SDS011;33330;50.402;30.240;2023-08-30T11:31:32;0.45;;;0.45;;
47609;SDS011;33330;50.402;30.240;2023-08-30T11:34:21;0.93;;;0.30;;
47609;SDS011;33330;50.402;30.240;2023-08-30T11:37:09;0.35;;;0.35;;
47609;SDS011;33330;50.402;30.240;2023-08-30T11:39:59;0.57;;;0.57;;
47609;SDS011;33330;50.402;30.240;2023-08-30T11:42:49;1.90;;;1.05;;
47609;SDS011;33330;50.402;30.240;2023-08-30T11:45:37;0.70;;;0.22;;
47609;SDS011;33330;50.402;30.240;2023-08-30T11:48:26;0.30;;;0.30;;
47609;SDS011;33330;50.402;30.240;2023-08-30T11:51:14;0.15;;;0.15;;
47609;SDS011;33330;50.402;30.240;2023-08-30T11:54:03;0.70;;;0.70;;
47609;SDS011;33330;50.402;30.240;2023-08-30T11:56:52;0.32;;;0.32;;
47609;SDS011;33330;50.402;30.240;2023-08-30T11:59:41;0.30;;;0.30;;
47609;SDS011;33330;50.402;30.240;2023-08-30T12:02:30;1.45;;;0.80;;
47609;SDS011;33330;50.402;30.240;2023-08-30T12:05:19;0.60;;;0.20;;
47609;SDS011;33330;50.402;30.240;2023-08-30T12:08:16;0.60;;;0.60;;
47609;SDS011;33330;50.402;30.240;2023-08-30T12:11:05;0.55;;;0.38;;
47609;SDS011;33330;50.402;30.240;2023-08-30T12:14:00;0.10;;;0.10;;
47609;SDS011;33330;50.402;30.240;2023-08-30T12:16:49;0.17;;;0.13;;
47609;SDS011;33330;50.402;30.240;2023-08-30T12:19:37;0.52;;;0.50;;
47609;SDS011;33330;50.402;30.240;2023-08-30T12:22:35;0.13;;;0.13;;
47609;SDS011;33330;50.402;30.240;2023-08-30T12:25:25;1.23;;;1.20;;
47609;SDS011;33330;50.402;30.240;2023-08-30T12:28:13;0.20;;;0.20;;
47609;SDS011;33330;50.402;30.240;2023-08-30T12:31:03;0.70;;;0.50;;
47609;SDS011;33330;50.402;30.240;2023-08-30T12:33:51;1.00;;;1.00;;
47609;SDS011;33330;50.402;30.240;2023-08-30T12:36:40;1.42;;;1.08;;
47609;SDS011;33330;50.402;30.240;2023-08-30T12:39:28;0.80;;;0.60;;
47609;SDS011;33330;50.402;30.240;2023-08-30T12:42:16;1.25;;;1.10;;
47609;SDS011;33330;50.402;30.240;2023-08-30T12:45:04;3.72;;;1.15;;
47609;SDS011;33330;50.402;30.240;2023-08-30T12:47:55;0.55;;;0.40;;
47609;SDS011;33330;50.402;30.240;2023-08-30T12:50:45;4.40;;;0.30;;
47609;SDS011;33330;50.402;30.240;2023-08-30T12:53:33;0.30;;;0.30;;
47609;SDS011;33330;50.402;30.240;2023-08-30T12:56:21;0.75;;;0.68;;
47609;SDS011;33330;50.402;30.240;2023-08-30T12:59:09;0.95;;;0.30;;
47609;SDS011;33330;50.402;30.240;2023-08-30T13:01:57;0.70;;;0.70;;
47609;SDS011;33330;50.402;30.240;2023-08-30T13:04:47;0.30;;;0.30;;
47609;SDS011;33330;50.402;30.240;2023-08-30T13:07:35;1.60;;;0.95;;
47609;SDS011;33330;50.402;30.240;2023-08-30T13:10:23;2.75;;;0.85;;
47609;SDS011;33330;50.402;30.240;2023-08-30T13:13:11;0.55;;;0.55;;
47609;SDS011;33330;50.402;30.240;2023-08-30T13:16:00;0.52;;;0.50;;
47609;SDS011;33330;50.402;30.240;2023-08-30T13:18:48;0.63;;;0.63;;
47609;SDS011;33330;50.402;30.240;2023-08-30T13:21:38;0.32;;;0.30;;
47609;SDS011;33330;50.402;30.240;2023-08-30T13:24:28;0.40;;;0.40;;
47609;SDS011;33330;50.402;30.240;2023-08-30T13:27:17;0.32;;;0.30;;
47609;SDS011;33330;50.402;30.240;2023-08-30T13:30:05;0.45;;;0.45;;
47609;SDS011;33330;50.402;30.240;2023-08-30T13:32:55;0.32;;;0.32;;
47609;SDS011;33330;50.402;30.240;2023-08-30T13:35:43;1.42;;;0.80;;
47609;SDS011;33330;50.402;30.240;2023-08-30T13:38:38;0.30;;;0.30;;
47609;SDS011;33330;50.402;30.240;2023-08-30T13:41:26;1.00;;;0.57;;
47609;SDS011;33330;50.402;30.240;2023-08-30T13:44:15;0.25;;;0.13;;
47609;SDS011;33330;50.402;30.240;2023-08-30T13:47:03;0.52;;;0.52;;
47609;SDS011;33330;50.402;30.240;2023-08-30T13:49:52;0.90;;;0.90;;
47609;SDS011;33330;50.402;30.240;2023-08-30T13:52:40;4.07;;;1.00;;
47609;SDS011;33330;50.402;30.240;2023-08-30T13:55:31;0.50;;;0.50;;
47609;SDS011;33330;50.402;30.240;2023-08-30T13:58:19;1.48;;;0.80;;
47609;SDS011;33330;50.402;30.240;2023-08-30T14:01:07;0.60;;;0.60;;
47609;SDS011;33330;50.402;30.240;2023-08-30T14:03:56;0.85;;;0.80;;
47609;SDS011;33330;50.402;30.240;2023-08-30T14:06:44;0.70;;;0.50;;
47609;SDS011;33330;50.402;30.240;2023-08-30T14:09:32;0.55;;;0.55;;
47609;SDS011;33330;50.402;30.240;2023-08-30T14:12:21;0.30;;;0.30;;
47609;SDS011;33330;50.402;30.240;2023-08-30T14:15:09;0.20;;;0.20;;
47609;SDS011;33330;50.402;30.240;2023-08-30T14:17:57;0.57;;;0.52;;
47609;SDS011;33330;50.402;30.240;2023-08-30T14:20:46;0.10;;;0.10;;
47609;SDS011;33330;50.402;30.240;2023-08-30T14:23:35;0.00;;;0.00;;
47609;SDS011;33330;50.402;30.240;2023-08-30T14:26:24;1.00;;;1.00;;
47609;SDS011;33330;50.402;30.240;2023-08-30T14:29:15;1.08;;;0.50;;
47609;SDS011;33330;50.402;30.240;2023-08-30T14:32:07;0.45;;;0.40;;
47609;SDS011;33330;50.402;30.240;2023-08-30T14:34:55;0.55;;;0.50;;
47609;SDS011;33330;50.402;30.240;2023-08-30T14:37:43;0.20;;;0.20;;
47609;SDS011;33330;50.402;30.240;2023-08-30T14:40:32;0.47;;;0.20;;
47609;SDS011;33330;50.402;30.240;2023-08-30T14:43:22;0.43;;;0.25;;
47609;SDS011;33330;50.402;30.240;2023-08-30T14:46:11;0.43;;;0.43;;
47609;SDS011;33330;50.402;30.240;2023-08-30T14:49:09;0.52;;;0.35;;
47609;SDS011;33330;50.402;30.240;2023-08-30T14:51:58;0.95;;;0.60;;
47609;SDS011;33330;50.402;30.240;2023-08-30T14:54:47;0.52;;;0.52;;
47609;SDS011;33330;50.402;30.240;2023-08-30T14:57:35;0.20;;;0.20;;
47609;SDS011;33330;50.402;30.240;2023-08-30T15:00:24;0.20;;;0.20;;
47609;SDS011;33330;50.402;30.240;2023-08-30T15:03:14;3.70;;;0.90;;
47609;SDS011;33330;50.402;30.240;2023-08-30T15:06:03;0.88;;;0.80;;
47609;SDS011;33330;50.402;30.240;2023-08-30T15:08:52;0.55;;;0.25;;
47609;SDS011;33330;50.402;30.240;2023-08-30T15:11:40;0.17;;;0.17;;
47609;SDS011;33330;50.402;30.240;2023-08-30T15:14:29;1.15;;;0.70;;
47609;SDS011;33330;50.402;30.240;2023-08-30T15:17:18;0.22;;;0.22;;
47609;SDS011;33330;50.402;30.240;2023-08-30T15:20:08;0.68;;;0.22;;
47609;SDS011;33330;50.402;30.240;2023-08-30T15:22:58;0.60;;;0.60;;
47609;SDS011;33330;50.402;30.240;2023-08-30T15:25:47;0.15;;;0.15;;
47609;SDS011;33330;50.402;30.240;2023-08-30T15:28:35;1.10;;;0.40;;
47609;SDS011;33330;50.402;30.240;2023-08-30T15:31:24;0.50;;;0.50;;
47609;SDS011;33330;50.402;30.240;2023-08-30T15:34:12;0.60;;;0.60;;
47609;SDS011;33330;50.402;30.240;2023-08-30T15:37:02;1.55;;;0.90;;
47609;SDS011;33330;50.402;30.240;2023-08-30T15:39:57;0.60;;;0.60;;
47609;SDS011;33330;50.402;30.240;2023-08-30T15:42:49;0.45;;;0.45;;
47609;SDS011;33330;50.402;30.240;2023-08-30T15:45:37;0.50;;;0.50;;
47609;SDS011;33330;50.402;30.240;2023-08-30T15:48:28;0.75;;;0.75;;
47609;SDS011;33330;50.402;30.240;2023-08-30T15:51:16;0.00;;;0.00;;
47609;SDS011;33330;50.402;30.240;2023-08-30T15:54:12;0.50;;;0.50;;
47609;SDS011;33330;50.402;30.240;2023-08-30T15:57:02;0.43;;;0.43;;
47609;SDS011;33330;50.402;30.240;2023-08-30T15:59:50;0.22;;;0.22;;
47609;SDS011;33330;50.402;30.240;2023-08-30T16:02:39;0.80;;;0.50;;
47609;SDS011;33330;50.402;30.240;2023-08-30T16:05:28;0.30;;;0.22;;
47609;SDS011;33330;50.402;30.240;2023-08-30T16:08:17;0.75;;;0.40;;
47609;SDS011;33330;50.402;30.240;2023-08-30T16:11:07;0.63;;;0.63;;
47609;SDS011;33330;50.402;30.240;2023-08-30T16:13:55;0.32;;;0.32;;
47609;SDS011;33330;50.402;30.240;2023-08-30T16:16:44;0.10;;;0.10;;
47609;SDS011;33330;50.402;30.240;2023-08-30T16:19:32;1.08;;;0.38;;
47609;SDS011;33330;50.402;30.240;2023-08-30T16:22:22;0.50;;;0.50;;
47609;SDS011;33330;50.402;30.240;2023-08-30T16:25:10;0.60;;;0.60;;
47609;SDS011;33330;50.402;30.240;2023-08-30T16:28:00;4.70;;;0.40;;
47609;SDS011;33330;50.402;30.240;2023-08-30T16:30:50;1.17;;;0.13;;
47609;SDS011;33330;50.402;30.240;2023-08-30T16:33:38;0.20;;;0.20;;
47609;SDS011;33330;50.402;30.240;2023-08-30T16:36:27;0.32;;;0.30;;
47609;SDS011;33330;50.402;30.240;2023-08-30T16:39:15;0.60;;;0.52;;
47609;SDS011;33330;50.402;30.240;2023-08-30T16:42:03;0.57;;;0.57;;
47609;SDS011;33330;50.402;30.240;2023-08-30T16:44:54;0.17;;;0.17;;